sensor_id;sensor_type;location;lat;lon;timestamp;pressure;altitude;pressure_sealevel;temperature
78859;BMP280;68210;52.032;4.634;2024-03-08T00:00:57;101665.13;;;4.79
78859;BMP280;68210;52.032;4.634;2024-03-08T00:02:58;101671.69;;;4.73
78859;BMP280;68210;52.032;4.634;2024-03-08T00:04:59;101667.03;;;4.60
78859;BMP280;68210;52.032;4.634;2024-03-08T00:06:59;101680.84;;;4.72
78859;BMP280;68210;52.032;4.634;2024-03-08T00:08:59;101700.41;;;4.54
78859;BMP280;68210;52.032;4.634;2024-03-08T00:11:00;101660.84;;;4.59
78859;BMP280;68210;52.032;4.634;2024-03-08T00:13:00;101663.41;;;4.69
78859;BMP280;68210;52.032;4.634;2024-03-08T00:15:01;101668.84;;;4.64
78859;BMP280;68210;52.032;4.634;2024-03-08T00:17:02;101661.94;;;4.77
78859;BMP280;68210;52.032;4.634;2024-03-08T00:19:03;101660.63;;;4.56
78859;BMP280;68210;52.032;4.634;2024-03-08T00:21:04;101656.66;;;4.53
78859;BMP280;68210;52.032;4.634;2024-03-08T00:23:04;101657.31;;;4.64
78859;BMP280;68210;52.032;4.634;2024-03-08T00:25:06;101664.84;;;4.80
78859;BMP280;68210;52.032;4.634;2024-03-08T00:27:09;101642.06;;;4.78
78859;BMP280;68210;52.032;4.634;2024-03-08T00:29:11;101666.59;;;4.53
78859;BMP280;68210;52.032;4.634;2024-03-08T00:31:13;101641.19;;;4.64
78859;BMP280;68210;52.032;4.634;2024-03-08T00:33:13;101652.53;;;4.61
78859;BMP280;68210;52.032;4.634;2024-03-08T00:35:14;101649.16;;;4.69
78859;BMP280;68210;52.032;4.634;2024-03-08T00:37:14;101629.44;;;4.60
78859;BMP280;68210;52.032;4.634;2024-03-08T00:39:15;101644.75;;;4.59
78859;BMP280;68210;52.032;4.634;2024-03-08T00:41:15;101633.47;;;4.39
78859;BMP280;68210;52.032;4.634;2024-03-08T00:43:15;101631.31;;;4.41
78859;BMP280;68210;52.032;4.634;2024-03-08T00:45:16;101632.53;;;4.49
78859;BMP280;68210;52.032;4.634;2024-03-08T00:47:17;101633.88;;;4.69
78859;BMP280;68210;52.032;4.634;2024-03-08T00:49:18;101634.06;;;4.54
78859;BMP280;68210;52.032;4.634;2024-03-08T00:51:19;101626.22;;;4.58
78859;BMP280;68210;52.032;4.634;2024-03-08T00:53:19;101622.59;;;4.49
78859;BMP280;68210;52.032;4.634;2024-03-08T00:55:19;101630.78;;;4.57
78859;BMP280;68210;52.032;4.634;2024-03-08T00:57:20;101621.09;;;4.43
78859;BMP280;68210;52.032;4.634;2024-03-08T00:59:22;101621.28;;;4.47
78859;BMP280;68210;52.032;4.634;2024-03-08T01:01:22;101619.69;;;4.27
78859;BMP280;68210;52.032;4.634;2024-03-08T01:03:22;101614.31;;;4.27
78859;BMP280;68210;52.032;4.634;2024-03-08T01:05:23;101608.09;;;4.32
78859;BMP280;68210;52.032;4.634;2024-03-08T01:07:24;101601.75;;;4.23
78859;BMP280;68210;52.032;4.634;2024-03-08T01:09:25;101612.50;;;4.41
78859;BMP280;68210;52.032;4.634;2024-03-08T01:11:27;101598.50;;;4.44
78859;BMP280;68210;52.032;4.634;2024-03-08T01:13:28;101606.88;;;4.43
78859;BMP280;68210;52.032;4.634;2024-03-08T01:15:28;101586.75;;;4.40
78859;BMP280;68210;52.032;4.634;2024-03-08T01:17:29;101586.03;;;4.53
78859;BMP280;68210;52.032;4.634;2024-03-08T01:19:29;101589.00;;;4.52
78859;BMP280;68210;52.032;4.634;2024-03-08T01:21:32;101596.41;;;4.41
78859;BMP280;68210;52.032;4.634;2024-03-08T01:23:33;101580.53;;;4.26
78859;BMP280;68210;52.032;4.634;2024-03-08T01:25:34;101586.16;;;4.25
78859;BMP280;68210;52.032;4.634;2024-03-08T01:27:35;101577.91;;;4.22
78859;BMP280;68210;52.032;4.634;2024-03-08T01:29:37;101574.66;;;4.24
78859;BMP280;68210;52.032;4.634;2024-03-08T01:31:37;101587.47;;;4.27
78859;BMP280;68210;52.032;4.634;2024-03-08T01:33:38;101587.69;;;4.13
78859;BMP280;68210;52.032;4.634;2024-03-08T01:35:38;101572.44;;;4.08
78859;BMP280;68210;52.032;4.634;2024-03-08T01:37:41;101575.41;;;4.07
78859;BMP280;68210;52.032;4.634;2024-03-08T01:39:41;101556.78;;;4.15
78859;BMP280;68210;52.032;4.634;2024-03-08T01:41:42;101557.03;;;4.19
78859;BMP280;68210;52.032;4.634;2024-03-08T01:43:42;101565.31;;;3.99
78859;BMP280;68210;52.032;4.634;2024-03-08T01:45:42;101558.09;;;4.18
78859;BMP280;68210;52.032;4.634;2024-03-08T01:47:43;101569.56;;;4.05
78859;BMP280;68210;52.032;4.634;2024-03-08T01:49:44;101570.28;;;4.10
78859;BMP280;68210;52.032;4.634;2024-03-08T01:51:45;101560.78;;;4.18
78859;BMP280;68210;52.032;4.634;2024-03-08T01:53:46;101545.25;;;4.15
78859;BMP280;68210;52.032;4.634;2024-03-08T01:55:48;101542.50;;;4.20
78859;BMP280;68210;52.032;4.634;2024-03-08T01:57:49;101553.25;;;4.20
78859;BMP280;68210;52.032;4.634;2024-03-08T01:59:50;101559.13;;;4.22
78859;BMP280;68210;52.032;4.634;2024-03-08T02:01:50;101548.38;;;4.22
78859;BMP280;68210;52.032;4.634;2024-03-08T02:03:51;101547.88;;;4.20
78859;BMP280;68210;52.032;4.634;2024-03-08T02:05:52;101559.78;;;4.14
78859;BMP280;68210;52.032;4.634;2024-03-08T02:07:53;101535.56;;;3.77
78859;BMP280;68210;52.032;4.634;2024-03-08T02:09:53;101539.06;;;3.78
78859;BMP280;68210;52.032;4.634;2024-03-08T02:11:54;101530.25;;;3.72
78859;BMP280;68210;52.032;4.634;2024-03-08T02:13:56;101525.72;;;3.91
78859;BMP280;68210;52.032;4.634;2024-03-08T02:15:57;101533.66;;;4.01
78859;BMP280;68210;52.032;4.634;2024-03-08T02:18:01;101543.50;;;3.87
78859;BMP280;68210;52.032;4.634;2024-03-08T02:20:01;101530.59;;;3.89
78859;BMP280;68210;52.032;4.634;2024-03-08T02:22:03;101525.50;;;3.88
78859;BMP280;68210;52.032;4.634;2024-03-08T02:24:04;101511.78;;;3.71
78859;BMP280;68210;52.032;4.634;2024-03-08T02:26:06;101510.84;;;3.80
78859;BMP280;68210;52.032;4.634;2024-03-08T02:28:10;101505.81;;;3.97
78859;BMP280;68210;52.032;4.634;2024-03-08T02:30:11;101512.00;;;3.74
78859;BMP280;68210;52.032;4.634;2024-03-08T02:32:12;101501.19;;;4.02
78859;BMP280;68210;52.032;4.634;2024-03-08T02:34:13;101496.16;;;3.78
78859;BMP280;68210;52.032;4.634;2024-03-08T02:36:13;101499.25;;;3.66
78859;BMP280;68210;52.032;4.634;2024-03-08T02:38:18;101503.03;;;3.65
78859;BMP280;68210;52.032;4.634;2024-03-08T02:40:19;101495.66;;;3.76
78859;BMP280;68210;52.032;4.634;2024-03-08T02:42:19;101502.06;;;3.75
78859;BMP280;68210;52.032;4.634;2024-03-08T02:44:19;101499.13;;;3.76
78859;BMP280;68210;52.032;4.634;2024-03-08T02:46:21;101502.16;;;3.70
78859;BMP280;68210;52.032;4.634;2024-03-08T02:48:22;101492.19;;;3.75
78859;BMP280;68210;52.032;4.634;2024-03-08T02:50:22;101492.94;;;3.58
78859;BMP280;68210;52.032;4.634;2024-03-08T02:52:23;101482.25;;;3.53
78859;BMP280;68210;52.032;4.634;2024-03-08T02:54:23;101493.69;;;3.40
78859;BMP280;68210;52.032;4.634;2024-03-08T02:56:24;101489.34;;;3.44
78859;BMP280;68210;52.032;4.634;2024-03-08T02:58:24;101476.78;;;3.63
78859;BMP280;68210;52.032;4.634;2024-03-08T03:00:24;101475.53;;;3.55
78859;BMP280;68210;52.032;4.634;2024-03-08T03:02:25;101490.56;;;3.74
78859;BMP280;68210;52.032;4.634;2024-03-08T03:04:26;101479.31;;;3.72
78859;BMP280;68210;52.032;4.634;2024-03-08T03:06:27;101473.22;;;3.49
78859;BMP280;68210;52.032;4.634;2024-03-08T03:08:27;101466.28;;;3.43
78859;BMP280;68210;52.032;4.634;2024-03-08T03:10:28;101479.88;;;3.28
78859;BMP280;68210;52.032;4.634;2024-03-08T03:12:29;101477.31;;;3.41
78859;BMP280;68210;52.032;4.634;2024-03-08T03:14:29;101471.75;;;3.56
78859;BMP280;68210;52.032;4.634;2024-03-08T03:16:30;101457.19;;;3.44
78859;BMP280;68210;52.032;4.634;2024-03-08T03:18:30;101460.72;;;3.39
78859;BMP280;68210;52.032;4.634;2024-03-08T03:20:33;101457.41;;;3.47
78859;BMP280;68210;52.032;4.634;2024-03-08T03:22:40;101448.31;;;3.25
78859;BMP280;68210;52.032;4.634;2024-03-08T03:24:41;101452.00;;;3.29
78859;BMP280;68210;52.032;4.634;2024-03-08T03:26:42;101452.88;;;3.25
78859;BMP280;68210;52.032;4.634;2024-03-08T03:28:43;101440.78;;;3.27
78859;BMP280;68210;52.032;4.634;2024-03-08T03:30:46;101455.25;;;3.26
78859;BMP280;68210;52.032;4.634;2024-03-08T03:32:50;101449.56;;;3.33
78859;BMP280;68210;52.032;4.634;2024-03-08T03:34:51;101455.25;;;3.26
78859;BMP280;68210;52.032;4.634;2024-03-08T03:36:53;101456.41;;;3.43
78859;BMP280;68210;52.032;4.634;2024-03-08T03:38:55;101450.06;;;3.34
78859;BMP280;68210;52.032;4.634;2024-03-08T03:41:09;101461.47;;;3.45
78859;BMP280;68210;52.032;4.634;2024-03-08T03:43:10;101441.66;;;3.23
78859;BMP280;68210;52.032;4.634;2024-03-08T03:45:11;101451.03;;;3.20
78859;BMP280;68210;52.032;4.634;2024-03-08T03:47:11;101441.00;;;3.31
78859;BMP280;68210;52.032;4.634;2024-03-08T03:49:12;101435.34;;;3.32
78859;BMP280;68210;52.032;4.634;2024-03-08T03:51:12;101436.22;;;3.28
78859;BMP280;68210;52.032;4.634;2024-03-08T03:53:15;101444.59;;;3.21
78859;BMP280;68210;52.032;4.634;2024-03-08T03:55:16;101436.56;;;3.21
78859;BMP280;68210;52.032;4.634;2024-03-08T03:57:18;101423.75;;;3.18
78859;BMP280;68210;52.032;4.634;2024-03-08T03:59:19;101429.88;;;3.19
78859;BMP280;68210;52.032;4.634;2024-03-08T04:01:19;101420.09;;;3.09
78859;BMP280;68210;52.032;4.634;2024-03-08T04:03:19;101415.84;;;3.08
78859;BMP280;68210;52.032;4.634;2024-03-08T04:05:20;101425.06;;;2.98
78859;BMP280;68210;52.032;4.634;2024-03-08T04:07:21;101415.75;;;3.13
78859;BMP280;68210;52.032;4.634;2024-03-08T04:09:21;101404.59;;;3.06
78859;BMP280;68210;52.032;4.634;2024-03-08T04:11:22;101413.84;;;2.96
78859;BMP280;68210;52.032;4.634;2024-03-08T04:13:22;101425.28;;;3.01
78859;BMP280;68210;52.032;4.634;2024-03-08T04:15:23;101409.75;;;3.03
78859;BMP280;68210;52.032;4.634;2024-03-08T04:17:23;101400.47;;;2.96
78859;BMP280;68210;52.032;4.634;2024-03-08T04:19:26;101400.97;;;2.98
78859;BMP280;68210;52.032;4.634;2024-03-08T04:21:29;101412.41;;;2.80
78859;BMP280;68210;52.032;4.634;2024-03-08T04:23:30;101402.66;;;2.89
78859;BMP280;68210;52.032;4.634;2024-03-08T04:25:30;101392.69;;;2.94
78859;BMP280;68210;52.032;4.634;2024-03-08T04:27:32;101408.72;;;2.99
78859;BMP280;68210;52.032;4.634;2024-03-08T04:29:33;101407.06;;;3.03
78859;BMP280;68210;52.032;4.634;2024-03-08T04:31:34;101391.22;;;3.06
78859;BMP280;68210;52.032;4.634;2024-03-08T04:33:35;101396.56;;;3.06
78859;BMP280;68210;52.032;4.634;2024-03-08T04:35:39;101394.41;;;3.08
78859;BMP280;68210;52.032;4.634;2024-03-08T04:37:39;101386.84;;;2.92
78859;BMP280;68210;52.032;4.634;2024-03-08T04:39:39;101402.28;;;2.77
78859;BMP280;68210;52.032;4.634;2024-03-08T04:41:40;101394.69;;;2.84
78859;BMP280;68210;52.032;4.634;2024-03-08T04:43:40;101405.25;;;2.99
78859;BMP280;68210;52.032;4.634;2024-03-08T04:45:40;101390.81;;;2.95
78859;BMP280;68210;52.032;4.634;2024-03-08T04:47:43;101411.16;;;2.96
78859;BMP280;68210;52.032;4.634;2024-03-08T04:49:44;101381.97;;;2.94
78859;BMP280;68210;52.032;4.634;2024-03-08T04:51:44;101377.22;;;2.68
78859;BMP280;68210;52.032;4.634;2024-03-08T04:53:45;101395.31;;;2.76
78859;BMP280;68210;52.032;4.634;2024-03-08T04:55:45;101376.19;;;2.87
78859;BMP280;68210;52.032;4.634;2024-03-08T04:57:45;101377.84;;;2.60
78859;BMP280;68210;52.032;4.634;2024-03-08T04:59:46;101369.94;;;2.73
78859;BMP280;68210;52.032;4.634;2024-03-08T05:01:47;101373.09;;;2.75
78859;BMP280;68210;52.032;4.634;2024-03-08T05:03:47;101389.31;;;2.84
78859;BMP280;68210;52.032;4.634;2024-03-08T05:05:50;101377.03;;;2.83
78859;BMP280;68210;52.032;4.634;2024-03-08T05:07:50;101377.00;;;2.60
78859;BMP280;68210;52.032;4.634;2024-03-08T05:09:50;101368.63;;;2.71
78859;BMP280;68210;52.032;4.634;2024-03-08T05:11:51;101360.34;;;2.68
78859;BMP280;68210;52.032;4.634;2024-03-08T05:13:52;101363.84;;;2.68
78859;BMP280;68210;52.032;4.634;2024-03-08T05:15:52;101364.69;;;2.64
78859;BMP280;68210;52.032;4.634;2024-03-08T05:17:52;101380.81;;;2.54
78859;BMP280;68210;52.032;4.634;2024-03-08T05:19:53;101368.38;;;2.68
78859;BMP280;68210;52.032;4.634;2024-03-08T05:21:53;101371.69;;;2.83
78859;BMP280;68210;52.032;4.634;2024-03-08T05:23:54;101363.19;;;2.76
78859;BMP280;68210;52.032;4.634;2024-03-08T05:25:54;101352.47;;;2.76
78859;BMP280;68210;52.032;4.634;2024-03-08T05:27:55;101369.06;;;2.78
78859;BMP280;68210;52.032;4.634;2024-03-08T05:29:55;101360.81;;;2.74
78859;BMP280;68210;52.032;4.634;2024-03-08T05:31:56;101369.53;;;2.85
78859;BMP280;68210;52.032;4.634;2024-03-08T05:33:58;101352.59;;;2.66
78859;BMP280;68210;52.032;4.634;2024-03-08T05:35:58;101363.84;;;2.68
78859;BMP280;68210;52.032;4.634;2024-03-08T05:37:59;101357.53;;;2.54
78859;BMP280;68210;52.032;4.634;2024-03-08T05:39:59;101360.59;;;2.43
78859;BMP280;68210;52.032;4.634;2024-03-08T05:42:00;101351.22;;;2.45
78859;BMP280;68210;52.032;4.634;2024-03-08T05:44:00;101344.06;;;2.64
78859;BMP280;68210;52.032;4.634;2024-03-08T05:46:00;101354.81;;;2.59
78859;BMP280;68210;52.032;4.634;2024-03-08T05:48:01;101355.56;;;2.65
78859;BMP280;68210;52.032;4.634;2024-03-08T05:50:01;101358.53;;;2.63
78859;BMP280;68210;52.032;4.634;2024-03-08T05:52:02;101355.34;;;2.61
78859;BMP280;68210;52.032;4.634;2024-03-08T05:54:03;101362.44;;;2.47
78859;BMP280;68210;52.032;4.634;2024-03-08T05:56:05;101348.28;;;2.47
78859;BMP280;68210;52.032;4.634;2024-03-08T05:58:06;101367.78;;;2.47
78859;BMP280;68210;52.032;4.634;2024-03-08T06:00:09;101352.47;;;2.53
78859;BMP280;68210;52.032;4.634;2024-03-08T06:02:15;101349.41;;;2.64
78859;BMP280;68210;52.032;4.634;2024-03-08T06:04:19;101343.09;;;2.55
78859;BMP280;68210;52.032;4.634;2024-03-08T06:06:19;101336.31;;;2.63
78859;BMP280;68210;52.032;4.634;2024-03-08T06:08:21;101330.31;;;2.71
78859;BMP280;68210;52.032;4.634;2024-03-08T06:10:22;101329.16;;;2.81
78859;BMP280;68210;52.032;4.634;2024-03-08T06:12:22;101335.75;;;2.66
78859;BMP280;68210;52.032;4.634;2024-03-08T06:14:24;101337.22;;;2.53
78859;BMP280;68210;52.032;4.634;2024-03-08T06:16:24;101325.59;;;2.40
78859;BMP280;68210;52.032;4.634;2024-03-08T06:18:24;101336.06;;;2.59
78859;BMP280;68210;52.032;4.634;2024-03-08T06:20:25;101330.72;;;2.59
78859;BMP280;68210;52.032;4.634;2024-03-08T06:22:26;101329.66;;;2.60
78859;BMP280;68210;52.032;4.634;2024-03-08T06:24:26;101327.63;;;2.71
78859;BMP280;68210;52.032;4.634;2024-03-08T06:26:27;101332.56;;;2.87
78859;BMP280;68210;52.032;4.634;2024-03-08T06:28:28;101345.44;;;2.85
78859;BMP280;68210;52.032;4.634;2024-03-08T06:30:29;101349.63;;;2.91
78859;BMP280;68210;52.032;4.634;2024-03-08T06:32:29;101333.72;;;2.76
78859;BMP280;68210;52.032;4.634;2024-03-08T06:34:32;101332.88;;;2.80
78859;BMP280;68210;52.032;4.634;2024-03-08T06:36:34;101336.41;;;2.99
78859;BMP280;68210;52.032;4.634;2024-03-08T06:38:35;101327.25;;;2.82
78859;BMP280;68210;52.032;4.634;2024-03-08T06:40:35;101337.56;;;2.93
78859;BMP280;68210;52.032;4.634;2024-03-08T06:42:35;101334.13;;;3.11
78859;BMP280;68210;52.032;4.634;2024-03-08T06:44:36;101313.06;;;3.23
78859;BMP280;68210;52.032;4.634;2024-03-08T06:46:38;101323.41;;;3.11
78859;BMP280;68210;52.032;4.634;2024-03-08T06:48:39;101320.72;;;3.29
78859;BMP280;68210;52.032;4.634;2024-03-08T06:50:39;101301.59;;;3.54
78859;BMP280;68210;52.032;4.634;2024-03-08T06:52:42;101295.72;;;3.70
78859;BMP280;68210;52.032;4.634;2024-03-08T06:54:44;101306.31;;;3.93
78859;BMP280;68210;52.032;4.634;2024-03-08T06:56:44;101294.66;;;4.29
78859;BMP280;68210;52.032;4.634;2024-03-08T06:58:45;101297.44;;;4.24
78859;BMP280;68210;52.032;4.634;2024-03-08T07:00:45;101293.75;;;4.33
78859;BMP280;68210;52.032;4.634;2024-03-08T07:02:47;101310.56;;;4.52
78859;BMP280;68210;52.032;4.634;2024-03-08T07:04:48;101307.81;;;4.70
78859;BMP280;68210;52.032;4.634;2024-03-08T07:06:50;101293.19;;;4.63
78859;BMP280;68210;52.032;4.634;2024-03-08T07:08:50;101311.19;;;4.89
78859;BMP280;68210;52.032;4.634;2024-03-08T07:10:50;101297.66;;;4.81
78859;BMP280;68210;52.032;4.634;2024-03-08T07:12:51;101298.53;;;4.50
78859;BMP280;68210;52.032;4.634;2024-03-08T07:14:51;101290.59;;;4.58
78859;BMP280;68210;52.032;4.634;2024-03-08T07:16:52;101284.50;;;4.92
78859;BMP280;68210;52.032;4.634;2024-03-08T07:18:53;101284.69;;;5.09
78859;BMP280;68210;52.032;4.634;2024-03-08T07:20:53;101294.09;;;5.55
78859;BMP280;68210;52.032;4.634;2024-03-08T07:22:53;101284.06;;;5.47
78859;BMP280;68210;52.032;4.634;2024-03-08T07:24:54;101291.94;;;4.95
78859;BMP280;68210;52.032;4.634;2024-03-08T07:26:54;101293.22;;;5.68
78859;BMP280;68210;52.032;4.634;2024-03-08T07:28:55;101301.44;;;5.63
78859;BMP280;68210;52.032;4.634;2024-03-08T07:30:57;101269.50;;;4.91
78859;BMP280;68210;52.032;4.634;2024-03-08T07:33:23;101276.00;;;5.47
78859;BMP280;68210;52.032;4.634;2024-03-08T07:35:23;101261.56;;;5.65
78859;BMP280;68210;52.032;4.634;2024-03-08T07:37:26;101264.41;;;6.03
78859;BMP280;68210;52.032;4.634;2024-03-08T07:39:26;101268.53;;;6.39
78859;BMP280;68210;52.032;4.634;2024-03-08T07:41:27;101283.19;;;6.63
78859;BMP280;68210;52.032;4.634;2024-03-08T07:43:29;101273.63;;;7.21
78859;BMP280;68210;52.032;4.634;2024-03-08T07:45:29;101288.41;;;7.65
78859;BMP280;68210;52.032;4.634;2024-03-08T07:47:30;101263.31;;;7.06
78859;BMP280;68210;52.032;4.634;2024-03-08T07:49:33;101275.72;;;7.57
78859;BMP280;68210;52.032;4.634;2024-03-08T07:51:34;101277.44;;;6.18
78859;BMP280;68210;52.032;4.634;2024-03-08T07:53:35;101267.03;;;6.63
78859;BMP280;68210;52.032;4.634;2024-03-08T07:55:35;101269.84;;;7.38
78859;BMP280;68210;52.032;4.634;2024-03-08T07:57:36;101261.41;;;6.43
78859;BMP280;68210;52.032;4.634;2024-03-08T07:59:39;101245.81;;;6.23
78859;BMP280;68210;52.032;4.634;2024-03-08T08:01:40;101261.28;;;7.45
78859;BMP280;68210;52.032;4.634;2024-03-08T08:03:40;101256.84;;;7.32
78859;BMP280;68210;52.032;4.634;2024-03-08T08:05:42;101260.47;;;7.11
78859;BMP280;68210;52.032;4.634;2024-03-08T08:07:44;101282.38;;;6.24
78859;BMP280;68210;52.032;4.634;2024-03-08T08:09:44;101256.72;;;6.57
78859;BMP280;68210;52.032;4.634;2024-03-08T08:11:44;101245.44;;;7.35
78859;BMP280;68210;52.032;4.634;2024-03-08T08:13:45;101275.88;;;7.60
78859;BMP280;68210;52.032;4.634;2024-03-08T08:15:45;101250.63;;;7.65
78859;BMP280;68210;52.032;4.634;2024-03-08T08:17:46;101257.00;;;7.52
78859;BMP280;68210;52.032;4.634;2024-03-08T08:19:50;101258.25;;;7.63
78859;BMP280;68210;52.032;4.634;2024-03-08T08:21:50;101248.88;;;6.94
78859;BMP280;68210;52.032;4.634;2024-03-08T08:23:50;101245.09;;;6.95
78859;BMP280;68210;52.032;4.634;2024-03-08T08:25:51;101233.75;;;7.85
78859;BMP280;68210;52.032;4.634;2024-03-08T08:27:52;101249.69;;;6.94
78859;BMP280;68210;52.032;4.634;2024-03-08T08:29:53;101220.53;;;7.13
78859;BMP280;68210;52.032;4.634;2024-03-08T08:31:54;101217.34;;;7.36
78859;BMP280;68210;52.032;4.634;2024-03-08T08:33:54;101226.09;;;8.03
78859;BMP280;68210;52.032;4.634;2024-03-08T08:35:58;101216.38;;;7.15
78859;BMP280;68210;52.032;4.634;2024-03-08T08:37:58;101222.66;;;6.61
78859;BMP280;68210;52.032;4.634;2024-03-08T08:39:59;101208.31;;;7.32
78859;BMP280;68210;52.032;4.634;2024-03-08T08:42:05;101224.25;;;7.79
78859;BMP280;68210;52.032;4.634;2024-03-08T08:44:09;101206.53;;;8.06
78859;BMP280;68210;52.032;4.634;2024-03-08T08:46:12;101201.47;;;8.13
78859;BMP280;68210;52.032;4.634;2024-03-08T08:48:13;101211.28;;;7.47
78859;BMP280;68210;52.032;4.634;2024-03-08T08:50:13;101218.56;;;7.72
78859;BMP280;68210;52.032;4.634;2024-03-08T08:52:14;101199.38;;;8.55
78859;BMP280;68210;52.032;4.634;2024-03-08T08:54:15;101201.78;;;8.48
78859;BMP280;68210;52.032;4.634;2024-03-08T08:56:17;101183.94;;;8.56
78859;BMP280;68210;52.032;4.634;2024-03-08T08:58:19;101191.63;;;8.46
78859;BMP280;68210;52.032;4.634;2024-03-08T09:00:20;101205.66;;;8.68
78859;BMP280;68210;52.032;4.634;2024-03-08T09:02:21;101194.81;;;7.40
78859;BMP280;68210;52.032;4.634;2024-03-08T09:04:22;101183.28;;;7.93
78859;BMP280;68210;52.032;4.634;2024-03-08T09:06:23;101186.41;;;7.95
78859;BMP280;68210;52.032;4.634;2024-03-08T09:08:23;101237.16;;;8.27
78859;BMP280;68210;52.032;4.634;2024-03-08T09:10:25;101187.41;;;8.85
78859;BMP280;68210;52.032;4.634;2024-03-08T09:12:25;101198.72;;;8.78
78859;BMP280;68210;52.032;4.634;2024-03-08T09:14:26;101189.38;;;8.19
78859;BMP280;68210;52.032;4.634;2024-03-08T09:16:26;101220.59;;;7.91
78859;BMP280;68210;52.032;4.634;2024-03-08T09:18:27;101173.69;;;7.51
78859;BMP280;68210;52.032;4.634;2024-03-08T09:20:27;101196.03;;;8.21
78859;BMP280;68210;52.032;4.634;2024-03-08T09:22:28;101188.66;;;7.93
78859;BMP280;68210;52.032;4.634;2024-03-08T09:24:28;101156.94;;;7.90
78859;BMP280;68210;52.032;4.634;2024-03-08T09:26:29;101169.38;;;8.48
78859;BMP280;68210;52.032;4.634;2024-03-08T09:28:30;101162.59;;;7.44
78859;BMP280;68210;52.032;4.634;2024-03-08T09:30:30;101161.81;;;6.76
78859;BMP280;68210;52.032;4.634;2024-03-08T09:32:31;101156.44;;;6.76
78859;BMP280;68210;52.032;4.634;2024-03-08T09:34:31;101167.63;;;7.70
78859;BMP280;68210;52.032;4.634;2024-03-08T09:36:32;101144.19;;;7.99
78859;BMP280;68210;52.032;4.634;2024-03-08T09:38:33;101130.13;;;7.24
78859;BMP280;68210;52.032;4.634;2024-03-08T09:40:37;101144.94;;;8.08
78859;BMP280;68210;52.032;4.634;2024-03-08T09:42:37;101142.25;;;8.08
78859;BMP280;68210;52.032;4.634;2024-03-08T09:44:37;101151.03;;;7.27
78859;BMP280;68210;52.032;4.634;2024-03-08T09:46:39;101116.38;;;7.62
78859;BMP280;68210;52.032;4.634;2024-03-08T09:48:40;101120.03;;;7.57
78859;BMP280;68210;52.032;4.634;2024-03-08T09:50:41;101144.81;;;7.51
78859;BMP280;68210;52.032;4.634;2024-03-08T09:52:46;101124.75;;;7.69
78859;BMP280;68210;52.032;4.634;2024-03-08T09:54:47;101112.72;;;7.58
78859;BMP280;68210;52.032;4.634;2024-03-08T09:56:48;101113.00;;;7.73
78859;BMP280;68210;52.032;4.634;2024-03-08T09:58:49;101105.41;;;8.12
78859;BMP280;68210;52.032;4.634;2024-03-08T10:01:04;101100.72;;;7.84
78859;BMP280;68210;52.032;4.634;2024-03-08T10:03:05;101109.97;;;7.75
78859;BMP280;68210;52.032;4.634;2024-03-08T10:05:06;101089.72;;;7.52
78859;BMP280;68210;52.032;4.634;2024-03-08T10:07:07;101090.41;;;8.23
78859;BMP280;68210;52.032;4.634;2024-03-08T10:09:07;101080.88;;;8.17
78859;BMP280;68210;52.032;4.634;2024-03-08T10:11:10;101087.41;;;8.16
78859;BMP280;68210;52.032;4.634;2024-03-08T10:13:12;101062.19;;;8.12
78859;BMP280;68210;52.032;4.634;2024-03-08T10:15:15;101070.75;;;8.14
78859;BMP280;68210;52.032;4.634;2024-03-08T10:17:20;101076.78;;;7.83
78859;BMP280;68210;52.032;4.634;2024-03-08T10:19:20;101084.22;;;7.86
78859;BMP280;68210;52.032;4.634;2024-03-08T10:21:21;101059.97;;;8.54
78859;BMP280;68210;52.032;4.634;2024-03-08T10:23:21;101060.88;;;8.78
78859;BMP280;68210;52.032;4.634;2024-03-08T10:25:23;101077.03;;;7.89
78859;BMP280;68210;52.032;4.634;2024-03-08T10:27:24;101050.22;;;7.85
78859;BMP280;68210;52.032;4.634;2024-03-08T10:29:26;101043.97;;;8.49
78859;BMP280;68210;52.032;4.634;2024-03-08T10:31:27;101058.72;;;8.72
78859;BMP280;68210;52.032;4.634;2024-03-08T10:33:27;101041.34;;;8.93
78859;BMP280;68210;52.032;4.634;2024-03-08T10:35:28;101039.63;;;9.21
78859;BMP280;68210;52.032;4.634;2024-03-08T10:37:29;101040.13;;;9.46
78859;BMP280;68210;52.032;4.634;2024-03-08T10:39:35;101020.44;;;8.30
78859;BMP280;68210;52.032;4.634;2024-03-08T10:41:37;101042.16;;;8.13
78859;BMP280;68210;52.032;4.634;2024-03-08T10:44:17;101027.69;;;8.38
78859;BMP280;68210;52.032;4.634;2024-03-08T10:48:29;101002.63;;;8.69
78859;BMP280;68210;52.032;4.634;2024-03-08T10:50:34;100989.34;;;8.24
78859;BMP280;68210;52.032;4.634;2024-03-08T10:52:35;101028.28;;;8.23
78859;BMP280;68210;52.032;4.634;2024-03-08T10:54:37;101002.91;;;8.16
78859;BMP280;68210;52.032;4.634;2024-03-08T10:56:40;100967.44;;;7.97
78859;BMP280;68210;52.032;4.634;2024-03-08T10:58:41;100998.16;;;8.53
78859;BMP280;68210;52.032;4.634;2024-03-08T11:00:44;100974.31;;;8.35
78859;BMP280;68210;52.032;4.634;2024-03-08T11:02:45;100973.25;;;8.27
78859;BMP280;68210;52.032;4.634;2024-03-08T11:04:46;101004.41;;;8.25
78859;BMP280;68210;52.032;4.634;2024-03-08T11:06:46;100979.25;;;8.53
78859;BMP280;68210;52.032;4.634;2024-03-08T11:08:47;100962.63;;;9.07
78859;BMP280;68210;52.032;4.634;2024-03-08T11:10:54;100963.09;;;9.09
78859;BMP280;68210;52.032;4.634;2024-03-08T11:12:55;100960.81;;;9.10
78859;BMP280;68210;52.032;4.634;2024-03-08T11:14:59;100982.91;;;9.12
78859;BMP280;68210;52.032;4.634;2024-03-08T11:17:01;100979.47;;;8.92
78859;BMP280;68210;52.032;4.634;2024-03-08T11:21:10;100937.88;;;9.16
78859;BMP280;68210;52.032;4.634;2024-03-08T11:23:12;100942.78;;;9.03
78859;BMP280;68210;52.032;4.634;2024-03-08T11:25:31;100943.66;;;8.83
78859;BMP280;68210;52.032;4.634;2024-03-08T11:27:33;100945.88;;;8.81
78859;BMP280;68210;52.032;4.634;2024-03-08T11:29:42;100918.72;;;8.66
78859;BMP280;68210;52.032;4.634;2024-03-08T11:31:50;100927.41;;;8.71
78859;BMP280;68210;52.032;4.634;2024-03-08T11:33:50;100926.06;;;8.33
78859;BMP280;68210;52.032;4.634;2024-03-08T11:36:19;100944.25;;;8.56
78859;BMP280;68210;52.032;4.634;2024-03-08T11:38:22;100948.75;;;8.52
78859;BMP280;68210;52.032;4.634;2024-03-08T11:40:23;100910.94;;;8.64
78859;BMP280;68210;52.032;4.634;2024-03-08T11:42:23;100917.28;;;8.36
78859;BMP280;68210;52.032;4.634;2024-03-08T11:44:26;100914.59;;;8.36